Coeur d'Alene, ID (83815)

3:36 PM PDT on July 25, 2016 (GMT -0700)
Oak Crest | | Change Station

Elev 2254 ft 47.72 °N, 116.81 °W | Updated 5 seconds ago

Clear
Clear
90.4 °F
Feels Like 88 °F
N
3.0
Wind Variable Wind from West
Gusts 7.0 mph

Today
High -- | Low -- °F
--% Chance of Precip.
Yesterday
High -- | Low -- °F
Precip. -- in
Pressure 29.96 in
Visibility 10.0 miles
Clouds Clear
Heat Index 88 °F
Dew Point 54 °F
Humidity 29%
Rainfall 0.00 in
Snow Depth Not available.
5:16 AM 8:30 PM
Waning Gibbous, 62% visible
METAR KCOE 252235Z AUTO 24004KT 10SM CLR 32/11 A2996 RMK AO1
Pressure 29.96 in
Visibility 10.0 miles
Clouds Clear
Heat Index 88 °F
Dew Point 54 °F
Humidity 29%
Rainfall 0.00 in
Snow Depth Not available.
5:16 AM 8:30 PM
Waning Gibbous, 62% visible
METAR KCOE 252235Z AUTO 24004KT 10SM CLR 32/11 A2996 RMK AO1

10-Day Weather Forecast

Almanac

Astronomy

Jul. 25, 2016 Rise Set
Actual Time
Civil Twilight
Nautical Twilight
Astronomical Twilight
Moon
Length of Visible Light
Length of Day
Tomorrow will be .
, % of the Moon is Illuminated

Today's Extremes

State Highs State Lows

Community

WunderPhotos

Upload Photos

1,927,433 photos uploaded!

WunderBlog® & News

Nearby

Air Quality

  Air Quality AQ Index Pollutant
Not available.

Snow Depth

Station Depth Elevation

Earthquake Activity

City Distance Mag. Time & Date
Minimum magnitude displayed is 2.5.

Coastal Water Temperatures

Place Temperature

Stations

Nearby Weather Stations

Station Location Temp. Windchill Dew Point Humidity Wind Precip. Elev Updated Type
                   

Watches & Warnings

There are currently no watches in effect.